Time;durP1;ratioP1;P1;durP2;ratioP2;P2;SDS_P1;SDS_P2;PMS_P1;PMS_P2;Temp;Humidity;BMP_temperature;BMP_pressure;BME280_temperature;BME280_humidity;BME280_pressure;Samples;Min_cycle;Max_cycle;Signal;HPM_P1;HPM_P2
2024/01/27 00:01:40;;;;;;;;;;;12.30;49.80;;;12.58;52.19;102415.75;5033206;28;19925;-36
2024/01/27 00:04:08;;;;;;;;;;;12.30;49.70;;;12.63;52.05;102422.38;5032606;28;19972;-34
2024/01/27 00:06:37;;;;;;;;;;;12.40;49.70;;;12.72;52.73;102418.69;5033001;28;20311;-34
2024/01/27 00:09:06;;;;;;;;;;;12.40;49.60;;;12.85;51.45;102421.44;5026009;28;20020;-36
2024/01/27 00:11:34;;;;;;;;;;;12.50;49.60;;;12.95;51.73;102423.72;5033173;28;19925;-36
2024/01/27 00:14:02;;;;;;;;;;;12.50;49.40;;;13.00;50.96;102422.81;5032239;28;19971;-34
2024/01/27 00:16:30;;;;;;;;;;;12.60;49.40;;;13.07;51.36;102430.59;5033273;28;20004;-34
2024/01/27 00:18:58;;;;;;;;;;;12.60;49.40;;;13.12;51.07;102439.72;5032567;28;20448;-34
2024/01/27 00:21:26;;;;;;;;;;;12.60;49.30;;;13.13;51.14;102432.44;5032647;28;19925;-34
2024/01/27 00:24:00;;;;;;;;;;;12.70;49.30;;;13.08;51.24;102437.44;5031571;28;19926;-35
2024/01/27 00:26:28;;;;;;;;;;;12.70;49.10;;;13.02;50.55;102436.53;5032625;28;20043;-34
2024/01/27 00:28:56;;;;;;;;;;;12.70;49.00;;;12.99;51.26;102451.16;5032448;28;19925;-35
2024/01/27 00:31:24;;;;;;;;;;;12.80;49.00;;;12.98;51.53;102444.31;5032569;28;20000;-34
2024/01/27 00:33:52;;;;;;;;;;;12.80;48.90;;;12.96;51.57;102448.22;5031490;28;19929;-35
2024/01/27 00:36:21;;;;;;;;;;;12.80;49.00;;;12.93;51.72;102447.75;5032269;28;19932;-35
2024/01/27 00:38:49;;;;;;;;;;;12.70;49.00;;;12.87;52.24;102448.66;5032086;28;20431;-35
2024/01/27 00:41:18;;;;;;;;;;;12.70;49.00;;;12.84;51.04;102448.19;5032242;28;19925;-35
2024/01/27 00:43:46;;;;;;;;;;;12.70;49.10;;;12.82;51.63;102463.75;5031396;28;19929;-34
2024/01/27 00:46:14;;;;;;;;;;;12.70;49.10;;;12.81;51.83;102467.88;5027527;28;19979;-35
2024/01/27 00:48:42;;;;;;;;;;;12.70;49.10;;;12.78;51.89;102472.44;5028872;28;19929;-34
2024/01/27 00:51:10;;;;;;;;;;;12.60;49.00;;;12.77;51.80;102468.09;5032192;28;20438;-34
2024/01/27 00:53:38;;;;;;;;;;;12.60;49.00;;;12.76;52.20;102468.78;5033842;28;20313;-35
2024/01/27 00:56:07;;;;;;;;;;;12.60;48.90;;;12.73;51.41;102465.81;5032160;28;19971;-34
2024/01/27 00:58:36;;;;;;;;;;;12.60;49.10;;;12.68;51.85;102466.72;5032030;28;19964;-34
2024/01/27 01:01:04;;;;;;;;;;;12.60;49.10;;;12.65;52.07;102467.84;5032274;28;19925;-34
2024/01/27 01:03:32;;;;;;;;;;;12.50;49.10;;;12.59;52.26;102472.88;5031804;28;19980;-35
2024/01/27 01:06:01;;;;;;;;;;;12.50;49.20;;;12.56;51.73;102477.44;5032242;28;19933;-37
2024/01/27 01:08:29;;;;;;;;;;;12.40;49.20;;;12.51;51.58;102474.94;5032411;28;19925;-36
2024/01/27 01:10:57;;;;;;;;;;;12.40;49.30;;;12.46;52.00;102477.63;5032740;28;19931;-37
2024/01/27 01:13:24;;;;;;;;;;;12.40;49.30;;;12.43;52.34;102476.28;5032326;28;19979;-36
2024/01/27 01:15:54;;;;;;;;;;;12.30;49.30;;;12.39;51.78;102479.03;5032536;28;20365;-37
2024/01/27 01:18:22;;;;;;;;;;;12.30;49.40;;;12.36;52.47;102479.47;5033543;28;19948;-35
2024/01/27 01:20:50;;;;;;;;;;;12.30;49.50;;;12.35;52.20;102486.75;5033327;28;19925;-35
2024/01/27 01:23:18;;;;;;;;;;;12.20;49.50;;;12.34;52.62;102484.91;5032038;28;20396;-35
2024/01/27 01:25:46;;;;;;;;;;;12.20;49.50;;;12.32;51.92;102479.69;5032557;28;19925;-35
2024/01/27 01:28:14;;;;;;;;;;;12.20;49.50;;;12.31;52.93;102482.88;5033076;28;19925;-35
2024/01/27 01:30:42;;;;;;;;;;;12.20;49.60;;;12.32;52.43;102481.28;5032974;28;19975;-35
2024/01/27 01:33:12;;;;;;;;;;;12.20;49.60;;;12.32;52.86;102486.31;5031690;28;20415;-35
2024/01/27 01:35:40;;;;;;;;;;;12.20;49.50;;;12.33;53.15;102478.09;5033066;28;19932;-35
2024/01/27 01:38:07;;;;;;;;;;;12.20;50.20;;;12.34;52.26;102479.91;5032779;28;19924;-35
2024/01/27 01:40:35;;;;;;;;;;;12.20;49.50;;;12.38;52.67;102487.25;5032207;28;19925;-35
2024/01/27 01:43:04;;;;;;;;;;;12.20;49.50;;;12.42;52.31;102487.94;5031736;28;20015;-35
2024/01/27 01:45:32;;;;;;;;;;;12.20;49.50;;;12.45;52.06;102487.50;5032326;28;19932;-35
2024/01/27 01:48:00;;;;;;;;;;;12.20;49.50;;;12.49;52.26;102497.31;5032372;28;19925;-35
2024/01/27 01:50:29;;;;;;;;;;;12.30;49.50;;;12.50;51.69;102489.09;5032285;28;20020;-36
2024/01/27 01:52:57;;;;;;;;;;;12.30;49.40;;;12.53;51.85;102503.72;5050540;22;19932;-40
2024/01/27 01:55:25;;;;;;;;;;;12.30;49.40;;;12.52;51.95;102485.19;5033013;28;19929;-33
2024/01/27 01:57:53;;;;;;;;;;;12.30;49.30;;;12.55;51.99;102488.19;5035276;28;20367;-34
2024/01/27 02:00:21;;;;;;;;;;;12.30;49.20;;;12.59;51.76;102490.47;5035663;28;20011;-35
2024/01/27 02:02:50;;;;;;;;;;;12.40;49.30;;;12.60;52.09;102486.34;5035083;28;19987;-33
2024/01/27 02:05:18;;;;;;;;;;;12.40;49.20;;;12.57;51.66;102486.84;5035214;28;20270;-33
2024/01/27 02:07:47;;;;;;;;;;;12.40;49.20;;;12.62;51.95;102480.88;5035525;28;19926;-33
2024/01/27 02:10:15;;;;;;;;;;;12.40;49.20;;;12.62;51.80;102485.91;5035420;28;19925;-31
2024/01/27 02:12:44;;;;;;;;;;;12.40;49.10;;;12.59;51.46;102485.44;5034720;28;20020;-32
2024/01/27 02:15:13;;;;;;;;;;;12.40;49.20;;;12.62;52.06;102485.91;5027261;28;19925;-34
2024/01/27 02:17:41;;;;;;;;;;;12.40;49.20;;;12.63;51.11;102485.25;5035184;28;19929;-33
2024/01/27 02:20:10;;;;;;;;;;;12.40;49.20;;;12.63;51.97;102472.66;5035035;28;19929;-31
2024/01/27 02:22:38;;;;;;;;;;;12.40;49.30;;;12.64;51.89;102477.00;5034370;28;20035;-35
2024/01/27 02:25:08;;;;;;;;;;;12.40;49.30;;;12.63;51.69;102482.72;5026696;28;19986;-37
2024/01/27 02:27:36;;;;;;;;;;;12.40;49.30;;;12.63;51.97;102482.72;5028041;28;20404;-36
2024/01/27 02:30:04;;;;;;;;;;;12.40;49.20;;;12.63;51.61;102487.75;5025830;28;19932;-36
2024/01/27 02:32:32;;;;;;;;;;;12.40;49.10;;;12.62;51.80;102480.88;5026757;28;19984;-33
2024/01/27 02:35:00;;;;;;;;;;;12.50;49.10;;;12.61;51.37;102474.03;5034410;28;19926;-32
2024/01/27 02:37:28;;;;;;;;;;;12.50;49.10;;;12.60;51.80;102477.22;5034743;28;19925;-32
2024/01/27 02:39:56;;;;;;;;;;;12.50;49.10;;;12.61;51.04;102478.13;5034665;28;19925;-33
2024/01/27 02:42:26;;;;;;;;;;;12.50;49.00;;;12.61;51.43;102478.13;5034150;28;20012;-33
2024/01/27 02:44:54;;;;;;;;;;;12.50;49.00;;;12.60;51.74;102477.22;5034337;28;20027;-32
2024/01/27 02:47:22;;;;;;;;;;;12.50;49.00;;;12.58;51.82;102478.59;5034329;28;20347;-32
2024/01/27 02:49:50;;;;;;;;;;;12.50;49.00;;;12.57;52.13;102480.88;5034493;28;19932;-30
2024/01/27 02:52:18;;;;;;;;;;;12.50;49.00;;;12.54;51.71;102483.84;5034172;28;19925;-30
2024/01/27 02:54:46;;;;;;;;;;;12.40;48.90;;;12.51;51.62;102485.91;5035467;28;19925;-30
2024/01/27 02:57:15;;;;;;;;;;;12.40;49.00;;;12.18;51.71;102433.03;5026622;28;19929;-30
2024/01/27 02:59:45;;;;;;;;;;;12.40;49.10;;;12.45;51.75;102490.00;5034936;28;20104;-34
2024/01/27 03:02:13;;;;;;;;;;;12.30;49.00;;;12.40;51.82;102485.84;5031422;28;19925;-34
2024/01/27 03:04:41;;;;;;;;;;;12.30;49.10;;;12.37;51.46;102487.91;5038383;28;19925;-34
2024/01/27 03:07:09;;;;;;;;;;;12.30;49.20;;;12.34;52.02;102489.94;5039221;28;20035;-34
2024/01/27 03:09:37;;;;;;;;;;;12.20;49.20;;;12.35;52.42;102496.81;5040358;28;19933;-34
2024/01/27 03:12:06;;;;;;;;;;;12.20;49.20;;;12.32;52.39;102493.84;5034259;28;19925;-34
2024/01/27 03:14:34;;;;;;;;;;;12.20;49.30;;;12.30;52.32;102497.72;5033995;28;19982;-34
2024/01/27 03:17:03;;;;;;;;;;;12.20;49.30;;;12.26;51.72;102490.41;5034244;28;20304;-34
2024/01/27 03:19:31;;;;;;;;;;;12.10;49.30;;;12.28;52.41;102499.06;5034284;28;19936;-35
2024/01/27 03:22:00;;;;;;;;;;;12.10;49.30;;;12.27;52.41;102502.25;5034321;28;20428;-35
2024/01/27 03:24:28;;;;;;;;;;;12.10;49.30;;;12.27;52.02;102497.22;5034389;28;20392;-34
2024/01/27 03:26:56;;;;;;;;;;;12.10;49.30;;;12.23;52.15;102489.91;5035714;28;19935;-35
2024/01/27 03:29:24;;;;;;;;;;;12.10;49.30;;;12.26;52.50;102497.94;5034815;28;19925;-34
2024/01/27 03:31:51;;;;;;;;;;;12.10;49.40;;;12.24;52.15;102501.81;5034394;28;20019;-34
2024/01/27 03:34:24;;;;;;;;;;;12.10;49.30;;;12.27;52.10;102517.34;5034820;28;20011;-34
2024/01/27 03:36:53;;;;;;;;;;;12.10;49.40;;;12.28;52.36;102507.53;5038797;28;20397;-34
2024/01/27 03:39:21;;;;;;;;;;;12.10;49.30;;;12.31;52.40;102513.03;5041311;28;20024;-34
2024/01/27 03:41:49;;;;;;;;;;;12.10;49.20;;;12.30;51.99;102507.78;5041123;28;19935;-34
2024/01/27 03:44:16;;;;;;;;;;;12.10;49.30;;;12.35;52.30;102511.91;5028685;28;19925;-36
2024/01/27 03:46:44;;;;;;;;;;;12.10;49.20;;;12.38;52.33;102509.88;5036485;28;20406;-36
2024/01/27 03:49:12;;;;;;;;;;;12.20;49.30;;;12.39;51.42;102504.16;5036410;28;19979;-36
2024/01/27 03:51:42;;;;;;;;;;;12.20;49.30;;;12.41;51.81;102505.28;5038188;28;19979;-35
2024/01/27 03:54:10;;;;;;;;;;;12.20;49.30;;;12.36;51.55;102513.72;5036186;28;19980;-36
2024/01/27 03:56:38;;;;;;;;;;;12.20;49.20;;;12.44;51.51;102518.34;5034841;28;20021;-35
2024/01/27 03:59:08;;;;;;;;;;;12.20;49.20;;;12.43;51.69;102514.00;5034624;28;19929;-35
2024/01/27 04:01:36;;;;;;;;;;;12.20;49.20;;;12.46;52.10;102521.97;5034016;28;20348;-35
2024/01/27 04:04:05;;;;;;;;;;;12.20;49.20;;;12.44;51.56;102523.38;5033647;28;20020;-36
2024/01/27 04:06:37;;;;;;;;;;;12.20;49.20;;;12.46;51.68;102514.44;5033798;28;19925;-35
2024/01/27 04:09:08;;;;;;;;;;;12.20;49.20;;;12.48;51.79;102515.59;5034247;28;19929;-36
2024/01/27 04:11:36;;;;;;;;;;;12.30;49.20;;;12.56;51.50;102524.31;5034656;28;19935;-35
2024/01/27 04:14:04;;;;;;;;;;;12.30;49.00;;;12.60;51.59;102512.41;5033565;28;19976;-35
2024/01/27 04:16:32;;;;;;;;;;;12.40;49.00;;;12.64;51.55;102519.78;5033475;28;19925;-35
2024/01/27 04:19:00;;;;;;;;;;;12.40;48.80;;;12.64;52.02;102524.81;5032964;28;20009;-34
2024/01/27 04:21:28;;;;;;;;;;;12.50;48.80;;;12.66;51.64;102514.94;5033317;28;20028;-35
2024/01/27 04:23:57;;;;;;;;;;;12.50;48.70;;;12.65;51.09;102515.63;5032418;28;19951;-35
2024/01/27 04:26:26;;;;;;;;;;;12.50;48.60;;;12.66;51.41;102523.41;5032693;28;19925;-35
2024/01/27 04:28:54;;;;;;;;;;;12.50;48.60;;;12.69;50.68;102518.84;5032645;28;20035;-35
2024/01/27 04:31:22;;;;;;;;;;;12.60;48.60;;;12.68;50.57;102527.09;5032881;28;20024;-35
2024/01/27 04:33:50;;;;;;;;;;;12.60;48.60;;;12.66;51.53;102525.91;5032362;28;19983;-35
2024/01/27 04:36:26;;;;;;;;;;;12.60;48.50;;;12.68;50.96;102527.09;5024699;28;20423;-35
2024/01/27 04:38:54;;;;;;;;;;;12.60;48.50;;;12.64;51.60;102524.81;5032597;28;20290;-35
2024/01/27 04:41:22;;;;;;;;;;;12.50;48.50;;;12.61;51.54;102529.34;5032458;28;20455;-35
2024/01/27 04:43:52;;;;;;;;;;;12.50;48.60;;;12.58;51.48;102533.00;5031828;28;19932;-35
2024/01/27 04:46:20;;;;;;;;;;;12.50;48.60;;;12.49;51.33;102527.50;5024713;28;19925;-35
2024/01/27 04:48:48;;;;;;;;;;;12.40;48.60;;;12.49;51.48;102542.56;5032453;28;20442;-34
2024/01/27 04:51:16;;;;;;;;;;;12.30;48.60;;;12.44;51.07;102548.50;5032326;28;19925;-35
2024/01/27 04:53:44;;;;;;;;;;;12.30;48.80;;;12.41;51.41;102553.06;5032172;28;19931;-35
2024/01/27 04:56:12;;;;;;;;;;;12.30;48.80;;;12.37;51.13;102550.78;5032043;28;19971;-35
2024/01/27 04:58:41;;;;;;;;;;;12.30;48.90;;;12.35;51.95;102554.63;5031694;28;19951;-34
2024/01/27 05:01:10;;;;;;;;;;;12.20;48.90;;;12.32;51.86;102559.22;5031517;28;19937;-35
2024/01/27 05:03:38;;;;;;;;;;;12.20;48.90;;;12.30;51.06;102563.06;5030921;28;19925;-35
2024/01/27 05:06:08;;;;;;;;;;;12.20;49.00;;;12.22;51.58;102553.44;5031210;28;20243;-35
2024/01/27 05:08:37;;;;;;;;;;;12.10;48.90;;;12.26;51.75;102568.31;5031397;28;19929;-35
2024/01/27 05:11:05;;;;;;;;;;;12.10;49.00;;;12.20;51.43;102557.34;5031362;28;19925;-34
2024/01/27 05:13:33;;;;;;;;;;;12.10;49.00;;;12.21;52.24;102556.63;5031024;28;19931;-35
2024/01/27 05:16:01;;;;;;;;;;;12.10;49.00;;;12.20;51.76;102559.84;5031140;28;20310;-35
2024/01/27 05:18:30;;;;;;;;;;;12.00;49.00;;;12.19;51.82;102558.00;5031229;28;20508;-36
2024/01/27 05:20:58;;;;;;;;;;;12.00;49.00;;;12.15;51.76;102548.13;5030941;28;19926;-36
2024/01/27 05:23:26;;;;;;;;;;;12.00;49.00;;;12.15;51.49;102551.56;5030679;28;19925;-35
2024/01/27 05:25:54;;;;;;;;;;;12.00;49.00;;;12.18;51.63;102556.16;5030990;28;19983;-35
2024/01/27 05:28:22;;;;;;;;;;;12.00;49.10;;;12.19;52.00;102563.03;5023784;28;19925;-35
2024/01/27 05:30:50;;;;;;;;;;;12.00;49.00;;;12.19;52.24;102563.03;5035065;28;20016;-34
2024/01/27 05:33:18;;;;;;;;;;;12.00;49.10;;;12.21;51.57;102561.66;5034397;28;19925;-34
2024/01/27 05:35:48;;;;;;;;;;;12.00;49.00;;;12.23;51.76;102555.28;5034606;28;19936;-34
2024/01/27 05:38:16;;;;;;;;;;;12.00;49.10;;;12.24;51.94;102557.09;5038627;28;19933;-35
2024/01/27 05:40:45;;;;;;;;;;;12.00;49.00;;;12.26;51.69;102550.72;5041117;28;19925;-35
2024/01/27 05:43:13;;;;;;;;;;;12.10;49.00;;;12.30;51.99;102553.03;5039404;28;19925;-35
2024/01/27 05:45:41;;;;;;;;;;;12.10;49.00;;;12.30;51.37;102548.00;5040855;28;19925;-35
2024/01/27 05:48:08;;;;;;;;;;;12.10;49.00;;;12.32;52.24;102541.63;5040667;28;19992;-35
2024/01/27 05:50:37;;;;;;;;;;;12.10;48.90;;;12.32;51.25;102551.66;5040299;28;19929;-36
2024/01/27 05:53:06;;;;;;;;;;;12.10;48.90;;;12.35;51.14;102544.56;4973757;28;1750891;-35
2024/01/27 05:55:33;;;;;;;;;;;12.10;48.80;;;12.38;50.95;102548.50;5041270;28;19925;-35
2024/01/27 05:58:01;;;;;;;;;;;12.10;48.90;;;12.39;51.34;102539.34;5040388;28;19972;-35
2024/01/27 06:00:29;;;;;;;;;;;12.10;48.90;;;12.44;51.15;102548.50;5041349;28;20188;-36
2024/01/27 06:02:57;;;;;;;;;;;12.20;49.00;;;12.44;51.28;102553.53;5039111;28;19936;-36
2024/01/27 06:05:25;;;;;;;;;;;12.20;48.90;;;12.48;51.41;102544.16;5035138;28;19987;-34
2024/01/27 06:07:53;;;;;;;;;;;12.30;49.40;;;12.53;51.36;102549.91;5035482;28;20032;-35
2024/01/27 06:10:23;;;;;;;;;;;12.30;48.70;;;12.59;51.47;102554.94;5035214;28;20008;-35
2024/01/27 06:12:51;;;;;;;;;;;12.40;48.60;;;12.56;51.31;102555.41;5034684;28;20024;-35
2024/01/27 06:15:19;;;;;;;;;;;12.40;48.40;;;12.60;50.71;102577.81;5034993;28;19925;-35
2024/01/27 06:17:48;;;;;;;;;;;12.50;48.40;;;12.63;50.65;102587.44;5034992;28;19929;-35
2024/01/27 06:20:17;;;;;;;;;;;12.50;48.40;;;12.61;51.14;102584.69;5034977;28;20365;-34
2024/01/27 06:22:45;;;;;;;;;;;12.50;48.30;;;12.60;50.71;102597.94;5034633;28;19925;-35
2024/01/27 06:25:13;;;;;;;;;;;12.50;48.20;;;12.63;51.06;102598.41;5035044;28;19968;-35
2024/01/27 06:27:42;;;;;;;;;;;12.50;48.20;;;12.68;51.42;102602.53;5034955;28;19972;-35
2024/01/27 06:30:11;;;;;;;;;;;12.50;48.10;;;12.67;51.36;102605.72;5034716;28;19925;-35
2024/01/27 06:32:39;;;;;;;;;;;12.50;48.10;;;12.61;50.61;102602.28;5034520;28;19929;-35
2024/01/27 06:35:08;;;;;;;;;;;12.50;48.20;;;12.59;50.77;102611.19;5034629;28;20408;-35
2024/01/27 06:37:36;;;;;;;;;;;12.50;48.30;;;12.54;51.51;102617.13;5034707;28;20385;-35
2024/01/27 06:40:04;;;;;;;;;;;12.50;48.40;;;12.50;51.05;102619.84;5034415;28;19925;-35
2024/01/27 06:42:32;;;;;;;;;;;12.40;48.30;;;12.45;51.99;102610.69;5034067;28;20393;-35
2024/01/27 06:45:02;;;;;;;;;;;12.40;48.50;;;12.40;51.61;102611.56;5034214;28;20320;-35
2024/01/27 06:47:29;;;;;;;;;;;12.30;48.50;;;12.36;50.94;102620.25;5034429;28;19925;-35
2024/01/27 06:49:57;;;;;;;;;;;12.30;48.60;;;12.34;51.22;102620.66;5034485;28;19995;-35
2024/01/27 06:52:25;;;;;;;;;;;12.20;48.60;;;12.29;51.56;102614.94;5034081;28;19925;-35
2024/01/27 06:54:53;;;;;;;;;;;12.20;48.70;;;12.28;51.68;102619.72;5037250;28;20041;-34
2024/01/27 06:57:21;;;;;;;;;;;12.20;48.70;;;12.26;51.36;102626.13;5034027;28;19925;-35
2024/01/27 06:59:52;;;;;;;;;;;12.10;48.70;;;11.93;51.55;102571.56;5034394;28;19930;-35
2024/01/27 07:02:23;;;;;;;;;;;12.10;48.70;;;12.21;51.31;102627.00;5033594;28;19940;-36
2024/01/27 07:04:51;;;;;;;;;;;12.10;48.70;;;12.19;51.28;102623.34;5034185;28;19925;-35
2024/01/27 07:07:19;;;;;;;;;;;12.00;48.80;;;12.16;51.76;102627.88;5033960;28;19979;-35
2024/01/27 07:09:47;;;;;;;;;;;12.00;48.80;;;12.17;52.38;102624.69;5033998;28;20012;-36
2024/01/27 07:12:15;;;;;;;;;;;12.00;48.80;;;12.15;51.80;102631.06;5033561;28;19929;-35
2024/01/27 07:14:43;;;;;;;;;;;12.00;48.80;;;12.16;51.83;102637.94;5033971;28;20389;-36
2024/01/27 07:17:11;;;;;;;;;;;12.00;48.80;;;12.15;51.66;102634.50;5034609;28;20012;-35
2024/01/27 07:19:40;;;;;;;;;;;12.00;48.80;;;12.17;51.32;102639.78;5034022;28;19968;-35
2024/01/27 07:22:08;;;;;;;;;;;12.00;48.90;;;12.19;51.63;102648.47;5033351;28;20019;-36
2024/01/27 07:24:36;;;;;;;;;;;12.00;48.90;;;12.20;51.30;102646.22;5025440;28;20011;-36
2024/01/27 07:27:05;;;;;;;;;;;12.00;48.80;;;12.26;51.26;102646.25;5034160;28;20026;-35
2024/01/27 07:29:32;;;;;;;;;;;12.00;48.90;;;12.26;51.66;102654.69;5033810;28;20419;-36
2024/01/27 07:32:00;;;;;;;;;;;12.00;48.80;;;12.28;51.01;102654.91;5034074;28;20311;-35
2024/01/27 07:34:28;;;;;;;;;;;12.00;48.80;;;12.28;51.13;102660.88;5025857;28;19983;-35
2024/01/27 07:36:58;;;;;;;;;;;12.10;48.80;;;12.28;51.81;102659.94;5033570;28;19933;-35
2024/01/27 07:39:26;;;;;;;;;;;12.10;48.70;;;12.30;51.39;102659.50;5033790;28;20472;-35
2024/01/27 07:41:54;;;;;;;;;;;12.10;48.70;;;12.28;51.88;102652.41;5033567;28;20389;-34
2024/01/27 07:44:22;;;;;;;;;;;12.10;48.70;;;12.31;51.33;102660.44;5032893;28;19936;-34
2024/01/27 07:46:49;;;;;;;;;;;12.10;48.60;;;12.32;51.19;102662.28;5033642;28;19971;-35
2024/01/27 07:49:18;;;;;;;;;;;12.10;48.70;;;12.36;51.94;102662.06;5033406;28;19925;-35
2024/01/27 07:51:46;;;;;;;;;;;12.10;48.70;;;12.44;50.85;102664.16;5032752;28;19929;-35
2024/01/27 07:54:16;;;;;;;;;;;12.10;48.70;;;12.46;51.13;102665.31;5052777;22;19971;-34
2024/01/27 07:56:43;;;;;;;;;;;12.20;48.70;;;12.48;51.10;102658.91;5053570;28;19936;-34
2024/01/27 07:59:14;;;;;;;;;;;12.20;48.50;;;12.54;51.26;102659.88;5053507;28;19964;-34
2024/01/27 08:01:42;;;;;;;;;;;12.30;48.50;;;12.56;50.44;102660.09;5054112;28;19929;-35
2024/01/27 08:04:10;;;;;;;;;;;12.40;48.50;;;12.58;50.40;102664.72;5053677;28;20011;-34
2024/01/27 08:06:47;;;;;;;;;;;12.40;48.30;;;12.54;50.57;102662.38;5050777;28;19926;-34
2024/01/27 08:09:16;;;;;;;;;;;12.40;48.20;;;12.58;50.68;102669.75;5033710;28;20016;-35
2024/01/27 08:11:44;;;;;;;;;;;12.40;48.10;;;12.60;50.21;102668.34;5034073;28;19959;-34
2024/01/27 08:14:12;;;;;;;;;;;12.50;48.20;;;12.61;51.07;102675.22;5033787;28;20011;-34
2024/01/27 08:16:40;;;;;;;;;;;12.50;48.10;;;12.60;50.79;102678.41;5052819;28;20008;-35
2024/01/27 08:19:08;;;;;;;;;;;12.50;48.10;;;12.61;50.47;102670.19;5044938;28;20180;-35
2024/01/27 08:21:36;;;;;;;;;;;12.50;48.00;;;12.61;50.47;102680.25;5040395;28;20194;-35
2024/01/27 08:24:04;;;;;;;;;;;12.50;48.10;;;12.59;51.45;102674.06;5048602;28;19933;-35
2024/01/27 08:26:34;;;;;;;;;;;12.50;48.10;;;12.56;50.69;102676.13;5033116;28;19932;-35
2024/01/27 08:29:02;;;;;;;;;;;12.40;48.10;;;12.53;51.44;102680.66;5040470;28;20398;-35
2024/01/27 08:31:29;;;;;;;;;;;12.40;48.20;;;12.47;51.53;102675.59;5032488;28;20019;-35
2024/01/27 08:33:57;;;;;;;;;;;12.40;48.20;;;12.44;50.84;102674.22;5039725;28;19924;-35
2024/01/27 08:36:26;;;;;;;;;;;12.30;48.20;;;12.43;50.86;102677.41;5052534;28;19984;-35
2024/01/27 08:38:54;;;;;;;;;;;12.30;48.30;;;12.38;51.35;102678.31;5044216;28;19925;-35
2024/01/27 08:41:22;;;;;;;;;;;12.30;48.40;;;12.35;51.33;102678.72;5044274;28;20320;-35
2024/01/27 08:43:54;;;;;;;;;;;12.20;48.40;;;12.35;51.11;102677.81;5037470;28;20020;-35
2024/01/27 08:46:22;;;;;;;;;;;12.20;48.40;;;12.34;51.09;102681.00;5041412;28;19960;-35
2024/01/27 08:48:50;;;;;;;;;;;12.20;48.50;;;12.33;51.98;102686.75;5032339;28;19932;-35
2024/01/27 08:51:18;;;;;;;;;;;12.20;48.50;;;12.33;51.69;102684.22;5048807;28;19926;-35
2024/01/27 08:53:48;;;;;;;;;;;12.20;48.50;;;12.32;51.09;102682.38;5037125;28;19939;-35
2024/01/27 08:56:17;;;;;;;;;;;12.20;48.60;;;12.33;51.05;102699.31;5042847;28;19968;-35
2024/01/27 08:58:47;;;;;;;;;;;12.10;48.50;;;12.33;51.41;102699.31;5041216;28;20042;-35
2024/01/27 09:01:18;;;;;;;;;;;12.20;48.60;;;12.34;51.46;102708.66;5049648;28;19925;-35
2024/01/27 09:03:46;;;;;;;;;;;12.20;48.60;;;12.34;50.97;102702.03;5040507;28;19925;-35
2024/01/27 09:06:14;;;;;;;;;;;12.20;48.60;;;12.36;51.35;102694.75;5032127;28;19932;-35
2024/01/27 09:08:42;;;;;;;;;;;12.20;48.50;;;12.37;51.05;102691.56;5037379;28;19935;-35
2024/01/27 09:11:10;;;;;;;;;;;12.20;48.50;;;12.39;51.40;102690.19;5043688;28;19968;-35
2024/01/27 09:13:38;;;;;;;;;;;12.20;48.50;;;12.41;50.79;102693.84;5042958;28;19929;-35
2024/01/27 09:16:07;;;;;;;;;;;12.20;48.50;;;12.44;50.78;102689.31;5043907;28;20028;-35
2024/01/27 09:18:36;;;;;;;;;;;12.20;48.40;;;12.47;51.14;102690.69;5032823;28;19932;-36
2024/01/27 09:21:05;;;;;;;;;;;12.30;48.40;;;12.48;50.41;102691.59;5040926;28;19929;-35
2024/01/27 09:23:33;;;;;;;;;;;12.30;48.40;;;12.51;51.63;102691.19;5044292;28;19947;-35
2024/01/27 09:26:01;;;;;;;;;;;12.30;48.30;;;12.54;51.56;102702.63;5051580;28;20447;-36
2024/01/27 09:28:29;;;;;;;;;;;12.40;48.40;;;12.56;50.73;102701.25;5040721;28;19926;-35
2024/01/27 09:30:57;;;;;;;;;;;12.40;48.30;;;12.61;50.57;102694.41;5040388;28;19969;-35
2024/01/27 09:33:25;;;;;;;;;;;12.40;48.20;;;12.63;50.57;102688.97;5033574;28;20006;-35
2024/01/27 09:35:55;;;;;;;;;;;12.40;48.20;;;12.65;50.79;102687.56;5034511;28;19926;-34
2024/01/27 09:38:23;;;;;;;;;;;12.50;48.20;;;12.68;50.71;102693.09;5033130;28;19925;-35
2024/01/27 09:40:50;;;;;;;;;;;12.50;48.20;;;12.72;49.95;102700.41;5032838;28;19961;-35
2024/01/27 09:43:18;;;;;;;;;;;12.50;48.10;;;12.75;50.54;102705.94;5041509;28;20019;-35
2024/01/27 09:45:46;;;;;;;;;;;12.50;48.00;;;12.77;50.72;102712.09;5039013;28;19968;-34
2024/01/27 09:48:14;;;;;;;;;;;12.60;48.10;;;12.80;50.60;102699.09;5031575;28;19932;-34
2024/01/27 09:50:42;;;;;;;;;;;12.60;48.00;;;12.85;50.81;102708.25;5040457;28;19999;-35
2024/01/27 09:53:12;;;;;;;;;;;12.60;47.90;;;12.87;50.13;102707.81;5039825;28;19925;-35
2024/01/27 09:55:40;;;;;;;;;;;12.60;47.90;;;12.90;49.89;102714.91;5043415;28;20015;-35
2024/01/27 09:58:08;;;;;;;;;;;12.70;48.00;;;12.93;50.43;102722.00;5043304;28;19936;-35
2024/01/27 10:00:36;;;;;;;;;;;12.70;47.90;;;12.94;50.38;102714.72;5048383;28;19925;-35
2024/01/27 10:03:04;;;;;;;;;;;12.70;47.80;;;12.96;49.94;102733.50;5040577;28;19925;-35
2024/01/27 10:05:32;;;;;;;;;;;12.70;47.80;;;12.99;50.39;102722.94;5040868;28;19972;-35
2024/01/27 10:08:00;;;;;;;;;;;12.70;47.80;;;12.98;49.55;102728.66;5040935;28;19932;-35
2024/01/27 10:10:30;;;;;;;;;;;12.70;47.80;;;12.99;50.19;102738.97;5034765;28;19932;-35
2024/01/27 10:12:58;;;;;;;;;;;12.70;47.80;;;12.99;50.23;102743.09;5045343;28;20020;-35
2024/01/27 10:15:27;;;;;;;;;;;12.80;47.80;;;12.99;49.84;102735.53;5033230;28;19935;-35
2024/01/27 10:18:05;;;;;;;;;;;12.80;47.80;;;12.96;49.74;102747.66;5050118;28;20327;-35
2024/01/27 10:20:33;;;;;;;;;;;12.80;47.80;;;12.97;50.78;102749.47;5044073;28;19925;-36
2024/01/27 10:23:11;;;;;;;;;;;12.70;47.80;;;12.95;50.17;102736.69;5050065;28;19925;-35
2024/01/27 10:25:40;;;;;;;;;;;12.70;47.80;;;12.93;50.65;102744.66;5035864;28;19986;-35
2024/01/27 10:28:08;;;;;;;;;;;12.70;47.90;;;12.89;49.80;102729.13;5051459;28;20375;-35
2024/01/27 10:30:37;;;;;;;;;;;12.70;48.00;;;12.86;50.53;102741.19;5052434;28;19925;-35
2024/01/27 10:33:05;;;;;;;;;;;12.70;48.10;;;12.85;50.41;102744.41;5050757;28;19980;-35
2024/01/27 10:35:33;;;;;;;;;;;12.60;48.10;;;12.84;50.40;102747.59;5037432;28;19933;-35
2024/01/27 10:38:02;;;;;;;;;;;12.60;48.20;;;12.80;50.89;102745.28;5051215;28;20008;-35
2024/01/27 10:40:29;;;;;;;;;;;12.60;48.30;;;12.78;51.02;102736.56;5055659;28;20023;-35
2024/01/27 10:43:03;;;;;;;;;;;12.60;48.40;;;12.77;50.69;102724.69;5046261;28;19924;-36
2024/01/27 10:45:35;;;;;;;;;;;12.60;48.50;;;12.76;51.06;102726.97;5046234;28;19963;-35
2024/01/27 10:48:04;;;;;;;;;;;12.50;48.50;;;12.74;51.26;102719.19;5047750;28;19932;-35
2024/01/27 10:50:35;;;;;;;;;;;12.50;48.60;;;12.72;50.99;102718.03;5053948;28;20011;-35
2024/01/27 10:53:06;;;;;;;;;;;12.50;48.70;;;12.71;51.76;102713.66;5054392;28;19982;-35
2024/01/27 10:55:34;;;;;;;;;;;12.50;48.80;;;12.71;51.35;102713.66;5054076;28;20015;-35
2024/01/27 10:58:04;;;;;;;;;;;12.50;48.80;;;12.70;51.22;102713.47;5047657;28;20020;-35
2024/01/27 11:00:32;;;;;;;;;;;12.50;48.80;;;12.69;52.04;102717.56;5036930;28;20420;-35
2024/01/27 11:03:02;;;;;;;;;;;12.50;48.90;;;12.68;51.55;102713.22;5039290;28;19925;-35
2024/01/27 11:05:30;;;;;;;;;;;12.50;49.00;;;12.68;51.27;102713.22;5045081;28;19931;-35
2024/01/27 11:07:59;;;;;;;;;;;12.50;49.00;;;12.67;51.63;102701.31;5048280;28;20039;-35
2024/01/27 11:10:30;;;;;;;;;;;12.50;49.00;;;12.70;51.67;102701.81;5052563;28;20012;-35
2024/01/27 11:12:58;;;;;;;;;;;12.50;49.00;;;12.73;51.10;102692.19;5039316;28;19931;-35
2024/01/27 11:15:28;;;;;;;;;;;12.50;48.90;;;12.74;51.80;102691.53;5034300;28;19926;-35